createdAt,value
2023-10-26T00:00:55.799Z,14.04
2023-10-26T00:03:58.767Z,13.88
2023-10-26T00:07:02.107Z,14.01
2023-10-26T00:10:05.049Z,13.66
2023-10-26T00:13:08.882Z,13.68
2023-10-26T00:16:11.517Z,13.54
2023-10-26T00:19:14.041Z,13.59
2023-10-26T00:22:16.539Z,13.48
2023-10-26T00:25:19.046Z,13.42
2023-10-26T00:28:21.673Z,13.48
2023-10-26T00:31:24.434Z,13.35
2023-10-26T00:34:27.678Z,13.38
2023-10-26T00:37:30.147Z,13.51
2023-10-26T00:40:32.585Z,13.45
2023-10-26T00:43:35.473Z,13.66
2023-10-26T00:46:38.027Z,13.63
2023-10-26T00:49:44.010Z,13.76
2023-10-26T00:52:47.585Z,13.74
2023-10-26T00:55:52.438Z,13.45
2023-10-26T00:58:56.335Z,13.72
2023-10-26T01:01:59.687Z,13.45
2023-10-26T01:05:02.185Z,13.23
2023-10-26T01:08:05.312Z,13.35
2023-10-26T01:11:07.827Z,13.38
2023-10-26T01:14:11.945Z,13.42
2023-10-26T01:17:14.841Z,13.45
2023-10-26T01:20:19.316Z,13.48
2023-10-26T01:23:21.866Z,13.46
2023-10-26T01:26:24.871Z,13.30
2023-10-26T01:29:27.337Z,13.46
2023-10-26T01:32:29.813Z,13.42
2023-10-26T01:35:45.860Z,13.47
2023-10-26T01:38:48.423Z,13.39
2023-10-26T01:41:51.654Z,13.23
2023-10-26T01:44:54.129Z,13.09
2023-10-26T01:47:56.901Z,13.09
2023-10-26T01:50:59.360Z,12.93
2023-10-26T01:54:01.843Z,12.85
2023-10-26T01:57:04.549Z,12.86
2023-10-26T02:00:07.550Z,12.79
2023-10-26T02:03:14.702Z,12.73
2023-10-26T02:06:17.440Z,12.70
2023-10-26T02:09:19.938Z,12.76
2023-10-26T02:12:22.465Z,12.84
2023-10-26T02:15:25.293Z,12.90
2023-10-26T02:18:27.820Z,12.97
2023-10-26T02:21:30.331Z,12.96
2023-10-26T02:24:32.787Z,13.00
2023-10-26T02:27:35.893Z,13.11
2023-10-26T02:30:38.350Z,12.92
2023-10-26T02:33:40.806Z,13.01
2023-10-26T02:36:43.281Z,12.93
2023-10-26T02:39:46.222Z,13.25
2023-10-26T02:42:49.582Z,13.39
2023-10-26T02:46:06.202Z,13.27
2023-10-26T02:49:08.752Z,13.32
2023-10-26T02:52:11.120Z,13.33
2023-10-26T02:55:13.614Z,13.35
2023-10-26T02:58:16.009Z,13.53
2023-10-26T03:01:18.434Z,13.46
2023-10-26T03:04:20.975Z,13.26
2023-10-26T03:07:24.116Z,13.17
2023-10-26T03:10:27.214Z,13.10
2023-10-26T03:13:29.625Z,13.17
2023-10-26T03:16:33.668Z,13.22
2023-10-26T03:19:36.184Z,13.21
2023-10-26T03:22:38.639Z,13.34
2023-10-26T03:25:42.142Z,13.48
2023-10-26T03:28:44.712Z,13.58
2023-10-26T03:31:47.142Z,13.41
2023-10-26T03:34:53.646Z,13.43
2023-10-26T03:37:56.120Z,13.51
2023-10-26T03:40:58.567Z,13.47
2023-10-26T03:44:01.404Z,13.44
2023-10-26T03:47:03.883Z,13.42
2023-10-26T03:50:06.766Z,13.39
2023-10-26T03:53:09.218Z,13.45
2023-10-26T03:56:11.645Z,13.64
2023-10-26T03:59:14.013Z,13.52
2023-10-26T04:02:16.813Z,13.29
2023-10-26T04:05:19.327Z,13.21
2023-10-26T04:08:21.778Z,13.07
2023-10-26T04:11:25.737Z,13.24
2023-10-26T04:14:28.170Z,13.09
2023-10-26T04:17:30.643Z,13.06
2023-10-26T04:20:33.140Z,13.22
2023-10-26T04:23:35.568Z,13.02
2023-10-26T04:26:37.969Z,13.00
2023-10-26T04:29:40.373Z,13.01
2023-10-26T04:32:43.715Z,13.15
2023-10-26T04:35:48.013Z,13.07
2023-10-26T04:38:51.555Z,12.95
2023-10-26T04:41:54.021Z,12.96
2023-10-26T04:44:56.583Z,12.94
2023-10-26T04:48:00.109Z,13.00
2023-10-26T04:51:02.928Z,13.12
2023-10-26T04:54:05.533Z,13.25
2023-10-26T04:57:07.996Z,13.15
2023-10-26T05:00:11.445Z,13.21
2023-10-26T05:03:13.951Z,13.31
2023-10-26T05:06:16.675Z,13.36
2023-10-26T05:09:19.271Z,13.33
2023-10-26T05:12:21.809Z,13.16
2023-10-26T05:15:24.430Z,13.42
2023-10-26T05:18:27.037Z,13.26
2023-10-26T05:21:29.695Z,13.25
2023-10-26T05:24:32.394Z,13.29
2023-10-26T05:27:37.006Z,13.19
2023-10-26T05:30:40.078Z,13.35
2023-10-26T05:33:43.363Z,13.38
2023-10-26T05:36:45.780Z,13.40
2023-10-26T05:39:48.341Z,13.57
2023-10-26T05:42:51.022Z,13.61
2023-10-26T05:45:53.819Z,13.71
2023-10-26T05:48:56.260Z,13.66
2023-10-26T05:52:01.945Z,13.65
2023-10-26T05:55:04.892Z,13.91
2023-10-26T05:58:09.980Z,13.79
2023-10-26T06:01:12.420Z,14.00
2023-10-26T06:04:15.028Z,13.94
2023-10-26T06:07:18.593Z,14.08
2023-10-26T06:10:21.001Z,14.14
2023-10-26T06:13:23.392Z,14.33
2023-10-26T06:16:25.863Z,14.57
2023-10-26T06:19:29.094Z,14.96
2023-10-26T06:22:31.548Z,15.38
2023-10-26T06:25:40.215Z,15.69
2023-10-26T06:28:42.623Z,18.15
2023-10-26T06:31:45.722Z,18.12
2023-10-26T06:34:48.142Z,17.33
2023-10-26T06:37:50.604Z,16.67
2023-10-26T06:40:53.025Z,17.01
2023-10-26T06:43:57.112Z,16.50
2023-10-26T06:46:59.586Z,16.33
2023-10-26T06:50:02.035Z,16.27
2023-10-26T06:53:04.518Z,16.20
2023-10-26T06:56:13.714Z,16.32
2023-10-26T06:59:16.171Z,16.51
2023-10-26T07:02:18.649Z,16.60
2023-10-26T07:05:21.110Z,16.48
2023-10-26T07:08:23.865Z,17.14
2023-10-26T07:11:26.838Z,17.19
2023-10-26T07:14:30.691Z,18.64
2023-10-26T07:17:33.175Z,20.06
2023-10-26T07:20:38.243Z,20.71
2023-10-26T07:23:40.677Z,20.26
2023-10-26T07:26:43.130Z,19.55
2023-10-26T07:29:45.770Z,19.93
2023-10-26T07:32:48.456Z,21.34
2023-10-26T07:35:53.103Z,20.59
2023-10-26T07:39:46.674Z,20.64
2023-10-26T07:42:17.929Z,18.78
2023-10-26T07:45:20.433Z,19.17
2023-10-26T07:48:22.942Z,18.98
2023-10-26T07:51:25.386Z,19.53
2023-10-26T07:54:27.969Z,18.74
2023-10-26T07:57:30.758Z,18.91
2023-10-26T08:00:33.276Z,18.07
2023-10-26T08:03:35.815Z,17.39
2023-10-26T08:06:38.222Z,17.08
2023-10-26T08:09:40.703Z,17.04
2023-10-26T08:12:43.165Z,17.57
2023-10-26T08:16:09.980Z,18.70
2023-10-26T08:19:08.132Z,19.86
2023-10-26T08:22:11.835Z,18.27
2023-10-26T08:25:18.891Z,18.58
2023-10-26T08:28:24.340Z,17.93
2023-10-26T08:31:27.158Z,18.92
2023-10-26T08:34:29.785Z,22.00
2023-10-26T08:37:32.232Z,20.34
2023-10-26T08:40:34.726Z,21.84
2023-10-26T08:43:37.679Z,20.50
2023-10-26T08:46:41.842Z,19.27
2023-10-26T08:49:50.285Z,19.31
2023-10-26T08:52:58.777Z,20.87
2023-10-26T08:56:01.761Z,20.46
2023-10-26T08:59:04.727Z,20.17
2023-10-26T09:02:07.244Z,20.28
2023-10-26T09:05:11.727Z,19.83
2023-10-26T09:08:18.602Z,20.06
2023-10-26T09:11:23.622Z,20.16
2023-10-26T09:14:26.434Z,19.62
2023-10-26T09:17:30.973Z,19.33
2023-10-26T09:20:33.927Z,19.81
2023-10-26T09:23:38.530Z,20.31
2023-10-26T09:26:41.070Z,20.56
2023-10-26T09:29:44.568Z,20.58
2023-10-26T09:32:49.435Z,20.21
2023-10-26T09:35:52.487Z,19.90
2023-10-26T09:38:56.491Z,19.15
2023-10-26T09:42:00.376Z,19.03
2023-10-26T09:45:02.852Z,19.36
2023-10-26T09:48:06.432Z,19.58
2023-10-26T09:51:11.676Z,19.97
2023-10-26T09:54:15.208Z,19.88
2023-10-26T09:57:25.323Z,19.17
2023-10-26T10:00:35.688Z,19.15
2023-10-26T10:03:45.359Z,19.55
2023-10-26T10:07:02.044Z,19.95
2023-10-26T10:10:07.017Z,20.45
2023-10-26T10:13:09.537Z,20.43
2023-10-26T10:16:37.153Z,20.80
2023-10-26T10:19:44.594Z,20.40
2023-10-26T10:22:54.821Z,20.49
2023-10-26T10:26:08.225Z,19.92
2023-10-26T10:29:20.527Z,19.66
2023-10-26T10:32:50.745Z,20.04
2023-10-26T10:36:03.667Z,19.81
2023-10-26T10:39:23.700Z,20.10
2023-10-26T10:42:27.193Z,20.90
2023-10-26T10:48:55.360Z,21.25
2023-10-26T10:51:58.647Z,20.44
2023-10-26T10:55:05.288Z,20.06
2023-10-26T10:58:08.374Z,20.05
2023-10-26T11:01:10.923Z,20.31
2023-10-26T11:04:14.754Z,20.33
2023-10-26T11:07:17.607Z,20.00
2023-10-26T11:10:20.455Z,19.80
2023-10-26T11:13:23.532Z,20.00
2023-10-26T11:16:26.502Z,19.60
2023-10-26T11:19:28.924Z,19.60
2023-10-26T11:22:31.635Z,19.81
2023-10-26T11:25:35.419Z,19.72
2023-10-26T11:28:37.939Z,19.66
2023-10-26T11:31:42.723Z,19.81
2023-10-26T11:35:11.975Z,20.06
2023-10-26T11:38:14.394Z,19.50
2023-10-26T11:41:26.850Z,19.57
2023-10-26T11:44:31.088Z,19.82
2023-10-26T11:47:51.687Z,20.22
2023-10-26T11:50:54.494Z,20.63
2023-10-26T11:53:58.253Z,20.29
2023-10-26T11:57:00.803Z,20.48
2023-10-26T12:00:07.213Z,19.46
2023-10-26T12:03:15.151Z,19.42
2023-10-26T12:06:17.578Z,19.93
2023-10-26T12:09:20.233Z,19.72
2023-10-26T12:12:22.672Z,19.80
2023-10-26T12:15:25.240Z,19.68
2023-10-26T12:18:28.275Z,19.50
2023-10-26T12:21:30.857Z,19.32
2023-10-26T12:24:34.246Z,19.35
2023-10-26T12:28:20.645Z,19.92
2023-10-26T12:30:59.128Z,19.81
2023-10-26T12:34:01.795Z,19.12
2023-10-26T12:37:05.422Z,19.90
2023-10-26T12:40:09.459Z,19.95
2023-10-26T12:43:11.949Z,19.90
2023-10-26T12:46:14.445Z,19.55
2023-10-26T12:49:16.922Z,19.32
2023-10-26T12:52:19.359Z,19.37
2023-10-26T12:55:24.784Z,19.58
2023-10-26T12:58:27.282Z,19.64
2023-10-26T13:01:29.759Z,19.55
2023-10-26T13:04:35.129Z,19.75
2023-10-26T13:07:37.610Z,19.91
2023-10-26T13:10:40.198Z,19.72
2023-10-26T13:13:42.924Z,19.48
2023-10-26T13:16:57.159Z,19.51
2023-10-26T13:20:01.077Z,19.79
2023-10-26T13:23:03.539Z,19.92
2023-10-26T13:26:05.949Z,19.72
2023-10-26T13:29:08.420Z,19.57
2023-10-26T13:32:13.015Z,19.39
2023-10-26T13:35:15.509Z,18.99
2023-10-26T13:38:17.890Z,18.88
2023-10-26T13:41:24.488Z,19.08
2023-10-26T13:44:26.974Z,18.96
2023-10-26T13:47:29.401Z,18.84
2023-10-26T13:50:31.826Z,18.70
2023-10-26T13:53:34.261Z,18.60
2023-10-26T13:56:36.684Z,18.61
2023-10-26T13:59:40.460Z,18.33
2023-10-26T14:02:43.121Z,18.19
2023-10-26T14:05:52.739Z,18.03
2023-10-26T14:08:59.272Z,17.90
2023-10-26T14:12:04.470Z,17.80
2023-10-26T14:15:07.394Z,17.88
2023-10-26T14:18:09.974Z,17.79
2023-10-26T14:21:12.432Z,17.67
2023-10-26T14:24:14.865Z,17.79
2023-10-26T14:27:17.289Z,17.86
2023-10-26T14:30:19.965Z,17.85
2023-10-26T14:33:22.799Z,17.83
2023-10-26T14:36:25.208Z,17.81
2023-10-26T14:39:28.394Z,17.69
2023-10-26T14:42:30.934Z,17.70
2023-10-26T14:45:36.179Z,17.61
2023-10-26T14:48:39.217Z,17.45
2023-10-26T14:51:45.659Z,17.44
2023-10-26T14:54:48.196Z,17.41
2023-10-26T14:57:51.028Z,17.34
2023-10-26T15:00:53.802Z,17.34
2023-10-26T15:03:56.935Z,17.26
2023-10-26T15:07:01.282Z,17.14
2023-10-26T15:10:20.769Z,16.97
2023-10-26T15:13:26.506Z,16.99
2023-10-26T15:16:29.148Z,16.91
2023-10-26T15:19:34.071Z,16.79
2023-10-26T15:22:36.460Z,16.61
2023-10-26T15:25:38.953Z,16.56
2023-10-26T15:28:41.408Z,16.53
2023-10-26T15:31:48.251Z,16.39
2023-10-26T15:34:50.720Z,16.28
2023-10-26T15:37:53.311Z,16.20
2023-10-26T15:41:05.410Z,16.19
2023-10-26T15:44:07.808Z,16.17
2023-10-26T15:47:10.341Z,16.02
2023-10-26T15:50:12.908Z,16.01
2023-10-26T15:53:15.424Z,15.73
2023-10-26T15:56:17.849Z,15.79
2023-10-26T15:59:20.316Z,15.74
2023-10-26T16:02:22.925Z,15.68
2023-10-26T16:05:25.425Z,15.59
2023-10-26T16:08:27.804Z,15.53
2023-10-26T16:11:30.236Z,15.46
2023-10-26T16:14:32.624Z,15.50
2023-10-26T16:17:37.798Z,15.20
2023-10-26T16:20:40.297Z,15.17
2023-10-26T16:23:43.423Z,15.23
2023-10-26T16:26:45.900Z,15.54
2023-10-26T16:29:48.969Z,15.52
2023-10-26T16:32:51.406Z,15.46
2023-10-26T16:35:59.001Z,15.32
2023-10-26T16:39:01.400Z,15.33
2023-10-26T16:42:04.114Z,15.27
2023-10-26T16:45:06.830Z,15.26
2023-10-26T16:48:09.241Z,15.19
2023-10-26T16:51:11.712Z,15.18
2023-10-26T16:54:14.203Z,15.10
2023-10-26T16:57:16.783Z,14.92
2023-10-26T17:00:19.672Z,14.74
2023-10-26T17:03:22.334Z,14.53
2023-10-26T17:06:25.057Z,14.43
2023-10-26T17:09:28.691Z,14.27
2023-10-26T17:12:31.385Z,14.23
2023-10-26T17:15:33.801Z,14.32
2023-10-26T17:18:36.443Z,14.31
2023-10-26T17:21:38.910Z,14.17
2023-10-26T17:24:42.034Z,14.15
2023-10-26T17:27:44.504Z,14.32
2023-10-26T17:30:47.243Z,14.49
2023-10-26T17:33:50.204Z,14.48
2023-10-26T17:36:55.821Z,14.64
2023-10-26T17:39:58.341Z,14.83
2023-10-26T17:43:01.490Z,14.74
2023-10-26T17:46:04.459Z,15.02
2023-10-26T17:49:07.807Z,14.99
2023-10-26T17:52:10.292Z,14.98
2023-10-26T17:55:14.637Z,14.95
2023-10-26T17:58:17.275Z,14.74
2023-10-26T18:01:20.972Z,14.71
2023-10-26T18:04:23.783Z,14.77
2023-10-26T18:07:26.509Z,14.84
2023-10-26T18:10:30.229Z,14.72
2023-10-26T18:13:34.353Z,14.64
2023-10-26T18:16:36.992Z,14.76
2023-10-26T18:19:39.515Z,14.70
2023-10-26T18:22:42.008Z,14.62
2023-10-26T18:25:44.637Z,14.71
2023-10-26T18:28:47.414Z,14.46
2023-10-26T18:31:49.959Z,14.60
2023-10-26T18:34:52.722Z,14.65
2023-10-26T18:37:56.429Z,14.74
2023-10-26T18:41:00.112Z,14.73
2023-10-26T18:44:02.596Z,14.63
2023-10-26T18:47:05.540Z,14.75
2023-10-26T18:50:08.246Z,14.89
2023-10-26T18:53:10.709Z,14.80
2023-10-26T18:56:15.313Z,14.87
2023-10-26T18:59:17.723Z,14.81
2023-10-26T19:02:20.375Z,14.88
2023-10-26T19:05:22.768Z,14.87
2023-10-26T19:08:25.179Z,15.01
2023-10-26T19:11:29.057Z,15.06
2023-10-26T19:14:32.998Z,14.98
2023-10-26T19:17:35.428Z,15.08
2023-10-26T19:20:43.949Z,15.10
2023-10-26T19:23:46.723Z,15.05
2023-10-26T19:26:49.239Z,15.11
2023-10-26T19:29:51.696Z,15.14
2023-10-26T19:32:54.314Z,15.17
2023-10-26T19:35:57.096Z,15.07
2023-10-26T19:38:59.861Z,14.87
2023-10-26T19:42:02.526Z,14.83
2023-10-26T19:45:06.782Z,14.68
2023-10-26T19:48:09.526Z,14.68
2023-10-26T19:51:12.824Z,14.74
2023-10-26T19:54:15.282Z,14.70
2023-10-26T19:57:19.009Z,14.63
2023-10-26T20:00:21.663Z,14.83
2023-10-26T20:03:24.312Z,14.96
2023-10-26T20:06:27.305Z,15.04
2023-10-26T20:09:30.816Z,14.82
2023-10-26T20:12:33.454Z,14.71
2023-10-26T20:15:36.653Z,14.81
2023-10-26T20:18:40.238Z,15.03
2023-10-26T20:21:43.006Z,15.05
2023-10-26T20:24:49.030Z,15.02
2023-10-26T20:27:51.632Z,15.06
2023-10-26T20:30:55.252Z,15.02
2023-10-26T20:33:59.205Z,14.95
2023-10-26T20:37:02.886Z,14.82
2023-10-26T20:40:06.179Z,14.77
2023-10-26T20:43:09.415Z,14.75
2023-10-26T20:46:12.942Z,14.79
2023-10-26T20:49:15.709Z,14.61
2023-10-26T20:52:18.200Z,14.75
2023-10-26T20:55:20.716Z,14.54
2023-10-26T20:58:23.191Z,14.77
2023-10-26T21:01:25.833Z,14.70
2023-10-26T21:04:28.263Z,14.71
2023-10-26T21:07:30.662Z,14.65
2023-10-26T21:10:35.999Z,14.58
2023-10-26T21:13:38.575Z,14.49
2023-10-26T21:16:43.320Z,14.47
2023-10-26T21:19:46.052Z,14.51
2023-10-26T21:22:48.582Z,14.63
2023-10-26T21:25:50.996Z,14.72
2023-10-26T21:28:55.427Z,14.72
2023-10-26T21:31:58.024Z,14.57
2023-10-26T21:35:00.594Z,14.39
2023-10-26T21:38:03.988Z,14.19
2023-10-26T21:41:06.708Z,14.15
2023-10-26T21:44:09.176Z,14.15
2023-10-26T21:47:11.646Z,14.25
2023-10-26T21:50:14.202Z,14.26
2023-10-26T21:53:18.020Z,14.07
2023-10-26T21:56:20.670Z,13.99
2023-10-26T21:59:23.109Z,14.03
2023-10-26T22:02:26.178Z,14.07
2023-10-26T22:05:29.239Z,13.96
2023-10-26T22:08:31.656Z,13.93
2023-10-26T22:11:34.131Z,13.84
2023-10-26T22:14:36.544Z,13.72
2023-10-26T22:17:39.352Z,13.84
2023-10-26T22:20:41.806Z,13.74
2023-10-26T22:23:44.204Z,13.78
2023-10-26T22:26:46.673Z,13.84
2023-10-26T22:29:49.143Z,13.76
2023-10-26T22:32:51.577Z,13.78
2023-10-26T22:35:54.554Z,13.75
2023-10-26T22:38:57.059Z,13.64
2023-10-26T22:41:59.480Z,13.57
2023-10-26T22:45:02.621Z,13.70
2023-10-26T22:48:05.440Z,13.73
2023-10-26T22:51:07.838Z,13.73
2023-10-26T22:54:10.273Z,13.62
2023-10-26T22:57:12.707Z,13.53
2023-10-26T23:00:15.416Z,13.51
2023-10-26T23:03:17.909Z,13.51
2023-10-26T23:06:20.668Z,13.43
2023-10-26T23:09:23.127Z,13.51
2023-10-26T23:12:25.702Z,13.69
2023-10-26T23:15:28.170Z,13.49
2023-10-26T23:18:30.622Z,13.41
2023-10-26T23:21:33.565Z,13.40
2023-10-26T23:24:39.805Z,13.49
2023-10-26T23:27:42.219Z,13.44
2023-10-26T23:30:44.675Z,13.53
2023-10-26T23:33:47.668Z,13.82
2023-10-26T23:36:50.497Z,13.84
2023-10-26T23:39:52.945Z,13.85
2023-10-26T23:42:55.393Z,13.80
2023-10-26T23:45:59.148Z,13.98
2023-10-26T23:49:01.669Z,14.15
2023-10-26T23:52:04.318Z,14.13
2023-10-26T23:55:07.311Z,14.28
2023-10-26T23:58:09.957Z,14.29
